sensor_id;sensor_type;location;lat;lon;timestamp;P1;durP1;ratioP1;P2;durP2;ratioP2
24644;SDS011;12780;45.502;9.146;2023-07-30T00:00:50;6.72;;;3.13;;
24644;SDS011;12780;45.502;9.146;2023-07-30T00:03:16;3.85;;;2.88;;
24644;SDS011;12780;45.502;9.146;2023-07-30T00:05:42;7.32;;;3.30;;
24644;SDS011;12780;45.502;9.146;2023-07-30T00:08:08;7.47;;;3.45;;
24644;SDS011;12780;45.502;9.146;2023-07-30T00:10:35;4.90;;;3.20;;
24644;SDS011;12780;45.502;9.146;2023-07-30T00:13:01;5.38;;;3.45;;
24644;SDS011;12780;45.502;9.146;2023-07-30T00:15:27;7.15;;;3.47;;
24644;SDS011;12780;45.502;9.146;2023-07-30T00:17:53;8.02;;;3.97;;
24644;SDS011;12780;45.502;9.146;2023-07-30T00:20:19;4.80;;;3.40;;
24644;SDS011;12780;45.502;9.146;2023-07-30T00:22:45;6.18;;;3.90;;
24644;SDS011;12780;45.502;9.146;2023-07-30T00:25:11;8.32;;;3.72;;
24644;SDS011;12780;45.502;9.146;2023-07-30T00:27:37;4.90;;;3.58;;
24644;SDS011;12780;45.502;9.146;2023-07-30T00:30:04;5.00;;;3.60;;
24644;SDS011;12780;45.502;9.146;2023-07-30T00:32:30;6.07;;;3.47;;
24644;SDS011;12780;45.502;9.146;2023-07-30T00:34:56;5.57;;;3.70;;
24644;SDS011;12780;45.502;9.146;2023-07-30T00:37:23;6.05;;;3.10;;
24644;SDS011;12780;45.502;9.146;2023-07-30T00:39:49;4.68;;;3.30;;
24644;SDS011;12780;45.502;9.146;2023-07-30T00:42:15;7.57;;;3.63;;
24644;SDS011;12780;45.502;9.146;2023-07-30T00:44:41;6.70;;;3.55;;
24644;SDS011;12780;45.502;9.146;2023-07-30T00:47:07;7.00;;;3.28;;
24644;SDS011;12780;45.502;9.146;2023-07-30T00:49:33;5.68;;;3.58;;
24644;SDS011;12780;45.502;9.146;2023-07-30T00:51:59;6.88;;;3.40;;
24644;SDS011;12780;45.502;9.146;2023-07-30T00:54:25;5.43;;;3.22;;
24644;SDS011;12780;45.502;9.146;2023-07-30T00:56:51;10.07;;;4.85;;
24644;SDS011;12780;45.502;9.146;2023-07-30T00:59:21;9.77;;;5.45;;
24644;SDS011;12780;45.502;9.146;2023-07-30T01:01:47;11.13;;;6.10;;
24644;SDS011;12780;45.502;9.146;2023-07-30T01:04:16;11.55;;;5.63;;
24644;SDS011;12780;45.502;9.146;2023-07-30T01:06:42;8.15;;;4.35;;
24644;SDS011;12780;45.502;9.146;2023-07-30T01:09:09;8.73;;;4.47;;
24644;SDS011;12780;45.502;9.146;2023-07-30T01:11:35;8.52;;;3.83;;
24644;SDS011;12780;45.502;9.146;2023-07-30T01:14:02;6.22;;;3.40;;
24644;SDS011;12780;45.502;9.146;2023-07-30T01:16:28;5.95;;;3.03;;
24644;SDS011;12780;45.502;9.146;2023-07-30T01:18:54;5.28;;;2.83;;
24644;SDS011;12780;45.502;9.146;2023-07-30T01:21:21;6.47;;;2.90;;
24644;SDS011;12780;45.502;9.146;2023-07-30T01:23:47;4.60;;;3.15;;
24644;SDS011;12780;45.502;9.146;2023-07-30T01:26:17;5.63;;;3.30;;
24644;SDS011;12780;45.502;9.146;2023-07-30T01:28:46;5.45;;;3.20;;
24644;SDS011;12780;45.502;9.146;2023-07-30T01:31:14;6.65;;;3.70;;
24644;SDS011;12780;45.502;9.146;2023-07-30T01:33:40;7.28;;;3.60;;
24644;SDS011;12780;45.502;9.146;2023-07-30T01:36:07;6.45;;;3.38;;
24644;SDS011;12780;45.502;9.146;2023-07-30T01:38:34;6.68;;;4.10;;
24644;SDS011;12780;45.502;9.146;2023-07-30T01:41:00;6.82;;;3.75;;
24644;SDS011;12780;45.502;9.146;2023-07-30T01:43:26;6.35;;;3.70;;
24644;SDS011;12780;45.502;9.146;2023-07-30T01:45:52;10.88;;;3.90;;
24644;SDS011;12780;45.502;9.146;2023-07-30T01:48:37;5.18;;;3.20;;
24644;SDS011;12780;45.502;9.146;2023-07-30T01:51:03;5.03;;;2.95;;
24644;SDS011;12780;45.502;9.146;2023-07-30T01:53:29;3.75;;;2.50;;
24644;SDS011;12780;45.502;9.146;2023-07-30T01:55:55;6.63;;;3.47;;
24644;SDS011;12780;45.502;9.146;2023-07-30T01:58:21;4.43;;;3.17;;
24644;SDS011;12780;45.502;9.146;2023-07-30T02:00:47;4.63;;;3.10;;
24644;SDS011;12780;45.502;9.146;2023-07-30T02:03:13;5.75;;;3.22;;
24644;SDS011;12780;45.502;9.146;2023-07-30T02:05:39;5.22;;;2.88;;
24644;SDS011;12780;45.502;9.146;2023-07-30T02:08:05;3.80;;;2.80;;
24644;SDS011;12780;45.502;9.146;2023-07-30T02:10:31;6.50;;;3.10;;
24644;SDS011;12780;45.502;9.146;2023-07-30T02:12:58;4.80;;;2.90;;
24644;SDS011;12780;45.502;9.146;2023-07-30T02:15:24;5.05;;;3.13;;
24644;SDS011;12780;45.502;9.146;2023-07-30T02:17:50;4.85;;;3.28;;
24644;SDS011;12780;45.502;9.146;2023-07-30T02:20:16;5.15;;;3.42;;
24644;SDS011;12780;45.502;9.146;2023-07-30T02:22:42;8.95;;;3.92;;
24644;SDS011;12780;45.502;9.146;2023-07-30T02:25:08;6.78;;;4.30;;
24644;SDS011;12780;45.502;9.146;2023-07-30T02:27:34;7.43;;;4.63;;
24644;SDS011;12780;45.502;9.146;2023-07-30T02:30:00;8.38;;;5.78;;
24644;SDS011;12780;45.502;9.146;2023-07-30T02:32:26;15.43;;;8.40;;
24644;SDS011;12780;45.502;9.146;2023-07-30T02:34:52;13.43;;;8.15;;
24644;SDS011;12780;45.502;9.146;2023-07-30T02:37:18;14.05;;;9.02;;
24644;SDS011;12780;45.502;9.146;2023-07-30T02:39:44;16.90;;;9.45;;
24644;SDS011;12780;45.502;9.146;2023-07-30T02:42:10;17.55;;;9.02;;
24644;SDS011;12780;45.502;9.146;2023-07-30T02:44:36;15.05;;;9.85;;
24644;SDS011;12780;45.502;9.146;2023-07-30T02:47:02;17.95;;;9.70;;
24644;SDS011;12780;45.502;9.146;2023-07-30T02:49:28;13.25;;;8.88;;
24644;SDS011;12780;45.502;9.146;2023-07-30T02:51:54;12.27;;;8.30;;
24644;SDS011;12780;45.502;9.146;2023-07-30T02:54:20;18.55;;;8.98;;
24644;SDS011;12780;45.502;9.146;2023-07-30T02:56:47;14.32;;;8.93;;
24644;SDS011;12780;45.502;9.146;2023-07-30T02:59:13;15.13;;;9.40;;
24644;SDS011;12780;45.502;9.146;2023-07-30T03:01:39;14.90;;;9.40;;
24644;SDS011;12780;45.502;9.146;2023-07-30T03:04:05;17.02;;;9.60;;
24644;SDS011;12780;45.502;9.146;2023-07-30T03:06:31;20.15;;;10.43;;
24644;SDS011;12780;45.502;9.146;2023-07-30T03:08:57;16.95;;;9.88;;
24644;SDS011;12780;45.502;9.146;2023-07-30T03:11:23;18.48;;;10.32;;
24644;SDS011;12780;45.502;9.146;2023-07-30T03:13:49;19.10;;;10.18;;
24644;SDS011;12780;45.502;9.146;2023-07-30T03:16:15;17.65;;;10.73;;
24644;SDS011;12780;45.502;9.146;2023-07-30T03:18:41;22.15;;;11.10;;
24644;SDS011;12780;45.502;9.146;2023-07-30T03:21:07;17.27;;;10.93;;
24644;SDS011;12780;45.502;9.146;2023-07-30T03:23:33;18.30;;;10.80;;
24644;SDS011;12780;45.502;9.146;2023-07-30T03:25:59;19.73;;;11.02;;
24644;SDS011;12780;45.502;9.146;2023-07-30T03:28:25;19.83;;;12.30;;
24644;SDS011;12780;45.502;9.146;2023-07-30T03:30:51;20.50;;;10.95;;
24644;SDS011;12780;45.502;9.146;2023-07-30T03:33:18;17.23;;;10.18;;
24644;SDS011;12780;45.502;9.146;2023-07-30T03:35:44;20.23;;;10.35;;
24644;SDS011;12780;45.502;9.146;2023-07-30T03:38:10;16.38;;;9.63;;
24644;SDS011;12780;45.502;9.146;2023-07-30T03:40:36;19.52;;;10.98;;
24644;SDS011;12780;45.502;9.146;2023-07-30T03:43:02;16.80;;;10.35;;
24644;SDS011;12780;45.502;9.146;2023-07-30T03:45:28;20.77;;;11.63;;
24644;SDS011;12780;45.502;9.146;2023-07-30T03:47:54;17.75;;;11.57;;
24644;SDS011;12780;45.502;9.146;2023-07-30T03:50:20;17.05;;;11.38;;
24644;SDS011;12780;45.502;9.146;2023-07-30T03:52:46;21.67;;;11.30;;
24644;SDS011;12780;45.502;9.146;2023-07-30T03:55:12;18.60;;;11.52;;
24644;SDS011;12780;45.502;9.146;2023-07-30T03:57:38;20.80;;;10.98;;
24644;SDS011;12780;45.502;9.146;2023-07-30T04:00:04;16.52;;;10.27;;
24644;SDS011;12780;45.502;9.146;2023-07-30T04:02:30;18.33;;;10.90;;
24644;SDS011;12780;45.502;9.146;2023-07-30T04:04:56;19.23;;;11.80;;
24644;SDS011;12780;45.502;9.146;2023-07-30T04:07:22;17.08;;;9.73;;
24644;SDS011;12780;45.502;9.146;2023-07-30T04:09:48;14.27;;;9.77;;
24644;SDS011;12780;45.502;9.146;2023-07-30T04:12:14;16.00;;;10.77;;
24644;SDS011;12780;45.502;9.146;2023-07-30T04:14:40;18.30;;;10.73;;
24644;SDS011;12780;45.502;9.146;2023-07-30T04:17:06;16.20;;;9.57;;
24644;SDS011;12780;45.502;9.146;2023-07-30T04:19:32;12.88;;;8.43;;
24644;SDS011;12780;45.502;9.146;2023-07-30T04:21:58;12.27;;;8.63;;
24644;SDS011;12780;45.502;9.146;2023-07-30T04:24:24;15.32;;;8.98;;
24644;SDS011;12780;45.502;9.146;2023-07-30T04:26:51;14.77;;;8.85;;
24644;SDS011;12780;45.502;9.146;2023-07-30T04:29:17;11.65;;;8.23;;
24644;SDS011;12780;45.502;9.146;2023-07-30T04:31:43;14.23;;;8.27;;
24644;SDS011;12780;45.502;9.146;2023-07-30T04:34:09;12.55;;;8.05;;
24644;SDS011;12780;45.502;9.146;2023-07-30T04:36:35;15.45;;;8.73;;
24644;SDS011;12780;45.502;9.146;2023-07-30T04:39:01;13.68;;;8.45;;
24644;SDS011;12780;45.502;9.146;2023-07-30T04:41:27;13.77;;;8.55;;
24644;SDS011;12780;45.502;9.146;2023-07-30T04:43:53;14.60;;;8.60;;
24644;SDS011;12780;45.502;9.146;2023-07-30T04:46:19;11.35;;;7.95;;
24644;SDS011;12780;45.502;9.146;2023-07-30T04:48:45;12.60;;;8.40;;
24644;SDS011;12780;45.502;9.146;2023-07-30T04:51:11;15.63;;;8.10;;
24644;SDS011;12780;45.502;9.146;2023-07-30T04:53:37;16.52;;;8.50;;
24644;SDS011;12780;45.502;9.146;2023-07-30T04:56:03;16.55;;;8.75;;
24644;SDS011;12780;45.502;9.146;2023-07-30T04:58:30;14.48;;;9.00;;
24644;SDS011;12780;45.502;9.146;2023-07-30T05:00:56;11.85;;;8.65;;
24644;SDS011;12780;45.502;9.146;2023-07-30T05:03:22;14.82;;;9.05;;
24644;SDS011;12780;45.502;9.146;2023-07-30T05:05:48;14.60;;;8.77;;
24644;SDS011;12780;45.502;9.146;2023-07-30T05:08:14;13.60;;;8.98;;
24644;SDS011;12780;45.502;9.146;2023-07-30T05:10:40;12.18;;;8.45;;
24644;SDS011;12780;45.502;9.146;2023-07-30T05:13:06;9.63;;;6.93;;
24644;SDS011;12780;45.502;9.146;2023-07-30T05:15:33;10.25;;;6.80;;
24644;SDS011;12780;45.502;9.146;2023-07-30T05:17:59;9.35;;;6.50;;
24644;SDS011;12780;45.502;9.146;2023-07-30T05:20:25;11.65;;;7.20;;
24644;SDS011;12780;45.502;9.146;2023-07-30T05:22:51;13.65;;;7.30;;
24644;SDS011;12780;45.502;9.146;2023-07-30T05:25:17;12.85;;;7.68;;
24644;SDS011;12780;45.502;9.146;2023-07-30T05:27:43;11.52;;;7.85;;
24644;SDS011;12780;45.502;9.146;2023-07-30T05:30:10;9.65;;;7.38;;
24644;SDS011;12780;45.502;9.146;2023-07-30T05:32:36;11.70;;;7.85;;
24644;SDS011;12780;45.502;9.146;2023-07-30T05:35:02;10.98;;;7.72;;
24644;SDS011;12780;45.502;9.146;2023-07-30T05:37:28;11.77;;;7.70;;
24644;SDS011;12780;45.502;9.146;2023-07-30T05:39:54;10.25;;;7.25;;
24644;SDS011;12780;45.502;9.146;2023-07-30T05:42:20;10.35;;;7.53;;
24644;SDS011;12780;45.502;9.146;2023-07-30T05:44:46;15.68;;;7.60;;
24644;SDS011;12780;45.502;9.146;2023-07-30T05:47:12;12.85;;;8.27;;
24644;SDS011;12780;45.502;9.146;2023-07-30T05:49:38;10.27;;;7.55;;
24644;SDS011;12780;45.502;9.146;2023-07-30T05:52:04;13.60;;;8.13;;
24644;SDS011;12780;45.502;9.146;2023-07-30T05:54:31;13.27;;;8.63;;
24644;SDS011;12780;45.502;9.146;2023-07-30T05:56:57;13.70;;;8.93;;
24644;SDS011;12780;45.502;9.146;2023-07-30T05:59:23;13.50;;;9.45;;
24644;SDS011;12780;45.502;9.146;2023-07-30T06:01:49;13.50;;;9.55;;
24644;SDS011;12780;45.502;9.146;2023-07-30T06:04:15;13.55;;;9.32;;
24644;SDS011;12780;45.502;9.146;2023-07-30T06:06:41;14.95;;;10.40;;
24644;SDS011;12780;45.502;9.146;2023-07-30T06:09:07;18.10;;;10.75;;
24644;SDS011;12780;45.502;9.146;2023-07-30T06:11:33;15.65;;;10.63;;
24644;SDS011;12780;45.502;9.146;2023-07-30T06:13:59;12.85;;;9.68;;
24644;SDS011;12780;45.502;9.146;2023-07-30T06:16:25;14.27;;;9.38;;
24644;SDS011;12780;45.502;9.146;2023-07-30T06:18:51;13.68;;;9.15;;
24644;SDS011;12780;45.502;9.146;2023-07-30T06:21:17;15.48;;;9.15;;
24644;SDS011;12780;45.502;9.146;2023-07-30T06:23:43;13.48;;;9.55;;
24644;SDS011;12780;45.502;9.146;2023-07-30T06:26:09;12.85;;;9.40;;
24644;SDS011;12780;45.502;9.146;2023-07-30T06:28:35;14.45;;;10.20;;
24644;SDS011;12780;45.502;9.146;2023-07-30T06:31:02;12.88;;;9.75;;
24644;SDS011;12780;45.502;9.146;2023-07-30T06:33:28;10.13;;;8.00;;
24644;SDS011;12780;45.502;9.146;2023-07-30T06:35:54;10.70;;;8.35;;
24644;SDS011;12780;45.502;9.146;2023-07-30T06:38:20;11.70;;;8.25;;
24644;SDS011;12780;45.502;9.146;2023-07-30T06:40:46;14.10;;;9.35;;
24644;SDS011;12780;45.502;9.146;2023-07-30T06:43:12;12.15;;;8.25;;
24644;SDS011;12780;45.502;9.146;2023-07-30T06:45:38;10.30;;;6.63;;
24644;SDS011;12780;45.502;9.146;2023-07-30T06:48:04;11.75;;;8.27;;
24644;SDS011;12780;45.502;9.146;2023-07-30T06:50:30;11.52;;;7.95;;
24644;SDS011;12780;45.502;9.146;2023-07-30T06:52:56;9.52;;;6.57;;
24644;SDS011;12780;45.502;9.146;2023-07-30T06:55:22;10.88;;;7.03;;
24644;SDS011;12780;45.502;9.146;2023-07-30T06:57:48;11.35;;;7.30;;
24644;SDS011;12780;45.502;9.146;2023-07-30T07:00:14;9.52;;;6.90;;
24644;SDS011;12780;45.502;9.146;2023-07-30T07:02:47;9.27;;;6.90;;
24644;SDS011;12780;45.502;9.146;2023-07-30T07:05:13;10.75;;;7.00;;
24644;SDS011;12780;45.502;9.146;2023-07-30T07:07:39;9.73;;;6.40;;
24644;SDS011;12780;45.502;9.146;2023-07-30T07:10:05;11.02;;;7.30;;
24644;SDS011;12780;45.502;9.146;2023-07-30T07:12:31;9.73;;;7.47;;
24644;SDS011;12780;45.502;9.146;2023-07-30T07:14:57;11.80;;;7.55;;
24644;SDS011;12780;45.502;9.146;2023-07-30T07:17:26;10.32;;;6.93;;
24644;SDS011;12780;45.502;9.146;2023-07-30T07:19:52;10.43;;;7.32;;
24644;SDS011;12780;45.502;9.146;2023-07-30T07:22:18;11.07;;;7.50;;
24644;SDS011;12780;45.502;9.146;2023-07-30T07:24:44;12.52;;;7.93;;
24644;SDS011;12780;45.502;9.146;2023-07-30T07:27:10;10.52;;;7.47;;
24644;SDS011;12780;45.502;9.146;2023-07-30T07:29:37;12.27;;;8.07;;
24644;SDS011;12780;45.502;9.146;2023-07-30T07:32:03;11.23;;;7.95;;
24644;SDS011;12780;45.502;9.146;2023-07-30T07:34:29;12.25;;;7.45;;
24644;SDS011;12780;45.502;9.146;2023-07-30T07:36:55;12.05;;;7.85;;
24644;SDS011;12780;45.502;9.146;2023-07-30T07:39:21;10.18;;;7.22;;
24644;SDS011;12780;45.502;9.146;2023-07-30T07:41:47;11.13;;;7.28;;
24644;SDS011;12780;45.502;9.146;2023-07-30T07:44:13;12.73;;;8.32;;
24644;SDS011;12780;45.502;9.146;2023-07-30T07:46:39;10.38;;;8.00;;
24644;SDS011;12780;45.502;9.146;2023-07-30T07:49:05;11.32;;;7.60;;
24644;SDS011;12780;45.502;9.146;2023-07-30T07:51:33;12.50;;;7.65;;
24644;SDS011;12780;45.502;9.146;2023-07-30T07:53:59;14.40;;;8.38;;
24644;SDS011;12780;45.502;9.146;2023-07-30T07:56:25;13.38;;;7.97;;
24644;SDS011;12780;45.502;9.146;2023-07-30T07:58:51;9.70;;;7.20;;
24644;SDS011;12780;45.502;9.146;2023-07-30T08:01:17;10.93;;;6.53;;
24644;SDS011;12780;45.502;9.146;2023-07-30T08:03:43;11.18;;;5.93;;
24644;SDS011;12780;45.502;9.146;2023-07-30T08:06:10;11.55;;;6.28;;
24644;SDS011;12780;45.502;9.146;2023-07-30T08:08:36;9.25;;;6.07;;
24644;SDS011;12780;45.502;9.146;2023-07-30T08:11:08;6.38;;;5.30;;
24644;SDS011;12780;45.502;9.146;2023-07-30T08:13:34;8.20;;;5.77;;
24644;SDS011;12780;45.502;9.146;2023-07-30T08:16:01;8.93;;;6.35;;
24644;SDS011;12780;45.502;9.146;2023-07-30T08:18:27;9.00;;;6.00;;
24644;SDS011;12780;45.502;9.146;2023-07-30T08:20:53;11.18;;;6.53;;
24644;SDS011;12780;45.502;9.146;2023-07-30T08:23:19;7.97;;;5.90;;
24644;SDS011;12780;45.502;9.146;2023-07-30T08:25:45;8.07;;;5.95;;
24644;SDS011;12780;45.502;9.146;2023-07-30T08:28:11;8.55;;;6.13;;
24644;SDS011;12780;45.502;9.146;2023-07-30T08:30:37;10.07;;;6.43;;
24644;SDS011;12780;45.502;9.146;2023-07-30T08:33:03;9.95;;;6.57;;
24644;SDS011;12780;45.502;9.146;2023-07-30T08:35:29;8.32;;;6.18;;
24644;SDS011;12780;45.502;9.146;2023-07-30T08:37:55;8.40;;;5.68;;
24644;SDS011;12780;45.502;9.146;2023-07-30T08:40:22;8.48;;;4.85;;
24644;SDS011;12780;45.502;9.146;2023-07-30T08:42:51;9.32;;;5.10;;
24644;SDS011;12780;45.502;9.146;2023-07-30T08:45:17;9.60;;;5.10;;
24644;SDS011;12780;45.502;9.146;2023-07-30T08:47:44;6.50;;;4.65;;
24644;SDS011;12780;45.502;9.146;2023-07-30T08:50:10;4.90;;;3.88;;
24644;SDS011;12780;45.502;9.146;2023-07-30T08:52:36;7.50;;;4.00;;
24644;SDS011;12780;45.502;9.146;2023-07-30T08:55:03;7.85;;;4.57;;
24644;SDS011;12780;45.502;9.146;2023-07-30T08:57:29;8.20;;;3.88;;
24644;SDS011;12780;45.502;9.146;2023-07-30T09:02:34;6.45;;;4.07;;
24644;SDS011;12780;45.502;9.146;2023-07-30T09:05:00;6.20;;;4.20;;
24644;SDS011;12780;45.502;9.146;2023-07-30T09:07:27;7.65;;;3.88;;
24644;SDS011;12780;45.502;9.146;2023-07-30T09:09:53;6.10;;;3.80;;
24644;SDS011;12780;45.502;9.146;2023-07-30T09:12:19;5.15;;;3.60;;
24644;SDS011;12780;45.502;9.146;2023-07-30T09:14:46;6.45;;;3.70;;
24644;SDS011;12780;45.502;9.146;2023-07-30T09:17:16;7.85;;;4.13;;
24644;SDS011;12780;45.502;9.146;2023-07-30T09:19:43;9.95;;;3.75;;
24644;SDS011;12780;45.502;9.146;2023-07-30T09:22:11;5.82;;;3.55;;
24644;SDS011;12780;45.502;9.146;2023-07-30T09:24:41;5.45;;;3.63;;
24644;SDS011;12780;45.502;9.146;2023-07-30T09:27:07;5.03;;;3.30;;
24644;SDS011;12780;45.502;9.146;2023-07-30T09:29:33;6.40;;;3.50;;
24644;SDS011;12780;45.502;9.146;2023-07-30T09:31:59;7.55;;;3.72;;
24644;SDS011;12780;45.502;9.146;2023-07-30T09:34:25;9.55;;;3.70;;
24644;SDS011;12780;45.502;9.146;2023-07-30T09:36:54;6.68;;;3.72;;
24644;SDS011;12780;45.502;9.146;2023-07-30T09:39:21;8.70;;;3.20;;
24644;SDS011;12780;45.502;9.146;2023-07-30T09:41:48;7.20;;;3.88;;
24644;SDS011;12780;45.502;9.146;2023-07-30T09:44:19;6.30;;;3.25;;
24644;SDS011;12780;45.502;9.146;2023-07-30T09:46:46;6.40;;;3.60;;
24644;SDS011;12780;45.502;9.146;2023-07-30T09:49:12;6.47;;;3.97;;
24644;SDS011;12780;45.502;9.146;2023-07-30T09:51:38;6.65;;;4.45;;
24644;SDS011;12780;45.502;9.146;2023-07-30T09:54:08;6.05;;;4.40;;
24644;SDS011;12780;45.502;9.146;2023-07-30T09:56:38;5.57;;;4.10;;
24644;SDS011;12780;45.502;9.146;2023-07-30T09:59:05;5.93;;;4.43;;
24644;SDS011;12780;45.502;9.146;2023-07-30T10:01:31;7.82;;;4.35;;
24644;SDS011;12780;45.502;9.146;2023-07-30T10:03:59;7.90;;;4.72;;
24644;SDS011;12780;45.502;9.146;2023-07-30T10:06:30;7.00;;;4.57;;
24644;SDS011;12780;45.502;9.146;2023-07-30T10:08:57;7.07;;;4.28;;
24644;SDS011;12780;45.502;9.146;2023-07-30T10:11:24;8.23;;;4.38;;
24644;SDS011;12780;45.502;9.146;2023-07-30T10:13:50;6.32;;;4.28;;
24644;SDS011;12780;45.502;9.146;2023-07-30T10:16:17;10.02;;;4.15;;
24644;SDS011;12780;45.502;9.146;2023-07-30T10:18:43;8.70;;;4.50;;
24644;SDS011;12780;45.502;9.146;2023-07-30T10:21:10;7.28;;;4.30;;
24644;SDS011;12780;45.502;9.146;2023-07-30T10:23:46;6.28;;;3.70;;
24644;SDS011;12780;45.502;9.146;2023-07-30T10:26:12;7.72;;;4.40;;
24644;SDS011;12780;45.502;9.146;2023-07-30T10:28:38;9.13;;;4.68;;
24644;SDS011;12780;45.502;9.146;2023-07-30T10:31:08;6.30;;;4.30;;
24644;SDS011;12780;45.502;9.146;2023-07-30T10:36:10;6.00;;;3.85;;
24644;SDS011;12780;45.502;9.146;2023-07-30T10:38:36;6.22;;;3.65;;
24644;SDS011;12780;45.502;9.146;2023-07-30T10:41:09;5.90;;;3.60;;
24644;SDS011;12780;45.502;9.146;2023-07-30T10:43:37;7.13;;;4.00;;
24644;SDS011;12780;45.502;9.146;2023-07-30T10:46:04;6.28;;;4.18;;
24644;SDS011;12780;45.502;9.146;2023-07-30T10:48:34;6.18;;;3.72;;
24644;SDS011;12780;45.502;9.146;2023-07-30T10:51:01;7.03;;;4.13;;
24644;SDS011;12780;45.502;9.146;2023-07-30T10:53:27;6.55;;;3.70;;
24644;SDS011;12780;45.502;9.146;2023-07-30T10:55:53;7.43;;;3.88;;
24644;SDS011;12780;45.502;9.146;2023-07-30T10:58:24;7.45;;;4.10;;
24644;SDS011;12780;45.502;9.146;2023-07-30T11:00:50;7.43;;;3.88;;
24644;SDS011;12780;45.502;9.146;2023-07-30T11:03:16;5.85;;;4.00;;
24644;SDS011;12780;45.502;9.146;2023-07-30T11:05:42;6.88;;;3.90;;
24644;SDS011;12780;45.502;9.146;2023-07-30T11:08:08;5.90;;;3.47;;
24644;SDS011;12780;45.502;9.146;2023-07-30T11:10:41;7.05;;;3.70;;
24644;SDS011;12780;45.502;9.146;2023-07-30T11:13:07;5.00;;;3.60;;
24644;SDS011;12780;45.502;9.146;2023-07-30T11:15:33;5.35;;;3.72;;
24644;SDS011;12780;45.502;9.146;2023-07-30T11:17:59;7.13;;;3.60;;
24644;SDS011;12780;45.502;9.146;2023-07-30T11:20:25;5.22;;;3.70;;
24644;SDS011;12780;45.502;9.146;2023-07-30T11:22:52;8.38;;;3.58;;
24644;SDS011;12780;45.502;9.146;2023-07-30T11:25:18;6.97;;;3.40;;
24644;SDS011;12780;45.502;9.146;2023-07-30T11:27:45;5.13;;;3.72;;
24644;SDS011;12780;45.502;9.146;2023-07-30T11:30:11;6.68;;;3.75;;
24644;SDS011;12780;45.502;9.146;2023-07-30T11:32:37;5.38;;;3.75;;
24644;SDS011;12780;45.502;9.146;2023-07-30T11:35:04;5.40;;;3.55;;
24644;SDS011;12780;45.502;9.146;2023-07-30T11:37:31;8.02;;;3.75;;
24644;SDS011;12780;45.502;9.146;2023-07-30T11:39:58;4.40;;;3.33;;
24644;SDS011;12780;45.502;9.146;2023-07-30T11:42:24;7.18;;;3.60;;
24644;SDS011;12780;45.502;9.146;2023-07-30T11:44:50;8.95;;;3.80;;
24644;SDS011;12780;45.502;9.146;2023-07-30T11:47:23;6.47;;;3.40;;
24644;SDS011;12780;45.502;9.146;2023-07-30T11:49:55;4.03;;;2.97;;
24644;SDS011;12780;45.502;9.146;2023-07-30T11:52:22;5.53;;;3.38;;
24644;SDS011;12780;45.502;9.146;2023-07-30T11:54:48;5.72;;;3.05;;
24644;SDS011;12780;45.502;9.146;2023-07-30T11:57:14;3.72;;;2.70;;
24644;SDS011;12780;45.502;9.146;2023-07-30T11:59:40;5.28;;;3.10;;
24644;SDS011;12780;45.502;9.146;2023-07-30T12:02:07;6.35;;;3.60;;
24644;SDS011;12780;45.502;9.146;2023-07-30T12:04:44;4.30;;;2.80;;
24644;SDS011;12780;45.502;9.146;2023-07-30T12:07:10;5.47;;;3.45;;
24644;SDS011;12780;45.502;9.146;2023-07-30T12:09:36;7.65;;;3.38;;
24644;SDS011;12780;45.502;9.146;2023-07-30T12:12:03;5.47;;;3.08;;
24644;SDS011;12780;45.502;9.146;2023-07-30T12:17:15;5.97;;;3.60;;
24644;SDS011;12780;45.502;9.146;2023-07-30T12:19:41;5.78;;;3.55;;
24644;SDS011;12780;45.502;9.146;2023-07-30T12:22:09;8.45;;;3.40;;
24644;SDS011;12780;45.502;9.146;2023-07-30T12:24:35;5.28;;;3.10;;
24644;SDS011;12780;45.502;9.146;2023-07-30T12:27:01;5.50;;;3.13;;
24644;SDS011;12780;45.502;9.146;2023-07-30T12:29:27;4.18;;;3.05;;
24644;SDS011;12780;45.502;9.146;2023-07-30T12:31:53;5.35;;;3.17;;
24644;SDS011;12780;45.502;9.146;2023-07-30T12:34:21;10.18;;;3.70;;
24644;SDS011;12780;45.502;9.146;2023-07-30T12:36:48;6.72;;;3.05;;
24644;SDS011;12780;45.502;9.146;2023-07-30T12:39:14;6.28;;;3.28;;
24644;SDS011;12780;45.502;9.146;2023-07-30T12:41:40;4.07;;;3.40;;
24644;SDS011;12780;45.502;9.146;2023-07-30T12:44:06;6.18;;;3.40;;
24644;SDS011;12780;45.502;9.146;2023-07-30T12:46:32;3.88;;;3.13;;
24644;SDS011;12780;45.502;9.146;2023-07-30T12:48:58;3.67;;;2.92;;
24644;SDS011;12780;45.502;9.146;2023-07-30T12:51:29;11.30;;;3.25;;
24644;SDS011;12780;45.502;9.146;2023-07-30T12:53:55;3.95;;;2.78;;
24644;SDS011;12780;45.502;9.146;2023-07-30T12:56:21;6.15;;;3.05;;
24644;SDS011;12780;45.502;9.146;2023-07-30T12:58:47;6.38;;;3.25;;
24644;SDS011;12780;45.502;9.146;2023-07-30T13:01:13;5.22;;;3.20;;
24644;SDS011;12780;45.502;9.146;2023-07-30T13:03:39;4.75;;;3.03;;
24644;SDS011;12780;45.502;9.146;2023-07-30T13:06:10;6.10;;;3.17;;
24644;SDS011;12780;45.502;9.146;2023-07-30T13:08:37;6.05;;;3.53;;
24644;SDS011;12780;45.502;9.146;2023-07-30T13:11:03;5.53;;;3.30;;
24644;SDS011;12780;45.502;9.146;2023-07-30T13:13:29;5.03;;;3.53;;
24644;SDS011;12780;45.502;9.146;2023-07-30T13:15:55;9.30;;;3.20;;
24644;SDS011;12780;45.502;9.146;2023-07-30T13:18:26;4.10;;;3.00;;
24644;SDS011;12780;45.502;9.146;2023-07-30T13:20:52;5.50;;;3.10;;
24644;SDS011;12780;45.502;9.146;2023-07-30T13:23:18;6.80;;;3.40;;
24644;SDS011;12780;45.502;9.146;2023-07-30T13:25:44;6.50;;;3.45;;
24644;SDS011;12780;45.502;9.146;2023-07-30T13:28:10;4.40;;;2.97;;
24644;SDS011;12780;45.502;9.146;2023-07-30T13:30:36;5.43;;;4.00;;
24644;SDS011;12780;45.502;9.146;2023-07-30T13:33:02;8.65;;;3.40;;
24644;SDS011;12780;45.502;9.146;2023-07-30T13:35:28;6.32;;;3.08;;
24644;SDS011;12780;45.502;9.146;2023-07-30T13:37:54;7.40;;;3.40;;
24644;SDS011;12780;45.502;9.146;2023-07-30T13:40:20;5.50;;;3.40;;
24644;SDS011;12780;45.502;9.146;2023-07-30T13:42:46;5.50;;;3.25;;
24644;SDS011;12780;45.502;9.146;2023-07-30T13:45:12;8.02;;;3.40;;
24644;SDS011;12780;45.502;9.146;2023-07-30T13:47:38;4.68;;;2.60;;
24644;SDS011;12780;45.502;9.146;2023-07-30T13:50:05;7.18;;;3.60;;
24644;SDS011;12780;45.502;9.146;2023-07-30T13:52:32;6.97;;;3.20;;
24644;SDS011;12780;45.502;9.146;2023-07-30T13:54:58;4.82;;;2.97;;
24644;SDS011;12780;45.502;9.146;2023-07-30T13:57:24;4.20;;;3.00;;
24644;SDS011;12780;45.502;9.146;2023-07-30T13:59:50;4.03;;;2.95;;
24644;SDS011;12780;45.502;9.146;2023-07-30T14:02:16;8.52;;;3.42;;
24644;SDS011;12780;45.502;9.146;2023-07-30T14:04:42;4.55;;;2.90;;
24644;SDS011;12780;45.502;9.146;2023-07-30T14:07:08;5.55;;;3.10;;
24644;SDS011;12780;45.502;9.146;2023-07-30T14:09:34;6.88;;;3.00;;
24644;SDS011;12780;45.502;9.146;2023-07-30T14:12:02;6.88;;;3.15;;
24644;SDS011;12780;45.502;9.146;2023-07-30T14:14:28;3.72;;;2.70;;
24644;SDS011;12780;45.502;9.146;2023-07-30T14:16:54;6.70;;;3.05;;
24644;SDS011;12780;45.502;9.146;2023-07-30T14:19:20;4.78;;;2.90;;
24644;SDS011;12780;45.502;9.146;2023-07-30T14:21:46;4.63;;;2.60;;
24644;SDS011;12780;45.502;9.146;2023-07-30T14:24:12;4.53;;;2.67;;
24644;SDS011;12780;45.502;9.146;2023-07-30T14:26:39;5.28;;;2.78;;
24644;SDS011;12780;45.502;9.146;2023-07-30T14:29:05;5.00;;;2.80;;
24644;SDS011;12780;45.502;9.146;2023-07-30T14:31:31;3.65;;;2.50;;
24644;SDS011;12780;45.502;9.146;2023-07-30T14:33:57;7.00;;;2.60;;
24644;SDS011;12780;45.502;9.146;2023-07-30T14:36:23;4.05;;;2.88;;
24644;SDS011;12780;45.502;9.146;2023-07-30T14:38:49;6.82;;;3.13;;
24644;SDS011;12780;45.502;9.146;2023-07-30T14:41:15;4.22;;;2.78;;
24644;SDS011;12780;45.502;9.146;2023-07-30T14:43:41;6.07;;;2.78;;